Time;durP1;ratioP1;P1;durP2;ratioP2;P2;SDS_P1;SDS_P2;PMS_P1;PMS_P2;Temp;Humidity;BMP_temperature;BMP_pressure;BME280_temperature;BME280_humidity;BME280_pressure;Samples;Min_cycle;Max_cycle;Signal;HPM_P1;HPM_P2
2023/05/12 00:01:36;;;;;;;;;;;13.20;87.50;;;;;;4984700;28;19961;-70
2023/05/12 00:04:03;;;;;;;;;;;13.20;87.30;;;;;;4984510;28;19930;-69
2023/05/12 00:06:30;;;;;;;;;;;13.20;87.20;;;;;;4985920;28;20012;-71
2023/05/12 00:08:57;;;;;;;;;;;13.20;87.00;;;;;;4985155;28;19941;-71
2023/05/12 00:11:23;;;;;;;;;;;13.20;87.30;;;;;;4984564;28;19937;-71
2023/05/12 00:13:52;;;;;;;;;;;13.20;87.10;;;;;;4983727;28;19961;-72
2023/05/12 00:16:19;;;;;;;;;;;13.20;87.10;;;;;;4984460;28;19926;-67
2023/05/12 00:18:46;;;;;;;;;;;13.20;87.10;;;;;;4984725;28;20001;-68
2023/05/12 00:21:12;;;;;;;;;;;13.20;87.00;;;;;;4984779;28;19937;-61
2023/05/12 00:23:39;;;;;;;;;;;13.10;87.20;;;;;;4984626;28;19934;-61
2023/05/12 00:26:06;;;;;;;;;;;13.20;87.20;;;;;;4984745;28;19930;-61
2023/05/12 00:28:34;;;;;;;;;;;13.20;87.30;;;;;;4983045;28;20094;-62
2023/05/12 00:31:03;;;;;;;;;;;13.10;87.50;;;;;;4984709;28;20048;-61
2023/05/12 00:33:30;;;;;;;;;;;13.00;87.60;;;;;;4981486;28;19930;-62
2023/05/12 00:35:59;;;;;;;;;;;13.00;87.80;;;;;;4983993;28;20050;-61
2023/05/12 00:38:26;;;;;;;;;;;13.00;87.80;;;;;;4979374;28;20297;-62
2023/05/12 00:40:53;;;;;;;;;;;13.10;87.70;;;;;;4984762;28;20048;-71
2023/05/12 00:43:20;;;;;;;;;;;13.10;87.60;;;;;;4984292;28;20381;-71
2023/05/12 00:45:47;;;;;;;;;;;13.00;87.60;;;;;;4981294;28;19933;-67
2023/05/12 00:48:15;;;;;;;;;;;13.00;87.50;;;;;;4983003;28;19980;-68
2023/05/12 00:50:42;;;;;;;;;;;13.00;87.60;;;;;;4981285;28;19953;-61
2023/05/12 00:53:09;;;;;;;;;;;13.00;87.70;;;;;;4983086;28;19957;-60
2023/05/12 00:55:36;;;;;;;;;;;13.00;87.80;;;;;;4983413;28;20385;-61
2023/05/12 00:58:03;;;;;;;;;;;13.00;87.80;;;;;;4984143;28;19930;-60
2023/05/12 01:00:31;;;;;;;;;;;13.00;87.40;;;;;;4966809;28;20301;-63
2023/05/12 01:02:58;;;;;;;;;;;13.10;87.20;;;;;;4983969;28;19974;-63
2023/05/12 01:05:30;;;;;;;;;;;13.10;87.10;;;;;;4984023;28;19984;-62
2023/05/12 01:07:59;;;;;;;;;;;13.10;87.30;;;;;;4973006;28;20033;-63
2023/05/12 01:10:29;;;;;;;;;;;13.10;87.40;;;;;;4976860;28;19933;-62
2023/05/12 01:12:57;;;;;;;;;;;13.10;87.40;;;;;;4980754;28;20283;-71
2023/05/12 01:15:24;;;;;;;;;;;13.10;87.20;;;;;;4982435;28;19933;-72
2023/05/12 01:17:53;;;;;;;;;;;13.10;87.00;;;;;;4966813;28;19927;-72
2023/05/12 01:20:22;;;;;;;;;;;13.10;87.10;;;;;;4965439;28;20356;-73
2023/05/12 01:22:51;;;;;;;;;;;13.10;87.10;;;;;;4983719;28;20392;-72
2023/05/12 01:25:19;;;;;;;;;;;13.10;87.20;;;;;;4980782;28;19953;-72
2023/05/12 01:27:48;;;;;;;;;;;13.10;87.10;;;;;;4978244;28;20040;-61
2023/05/12 01:30:16;;;;;;;;;;;13.10;87.20;;;;;;4981603;28;20033;-60
2023/05/12 01:32:43;;;;;;;;;;;13.10;87.40;;;;;;4983383;28;19937;-64
2023/05/12 01:35:10;;;;;;;;;;;13.10;87.20;;;;;;4982219;28;19926;-64
2023/05/12 01:37:40;;;;;;;;;;;13.00;87.50;;;;;;4965978;28;19934;-69
2023/05/12 01:40:08;;;;;;;;;;;13.10;87.50;;;;;;4971825;28;20056;-67
2023/05/12 01:42:35;;;;;;;;;;;13.10;87.30;;;;;;4965860;28;19937;-65
2023/05/12 01:45:03;;;;;;;;;;;13.10;87.30;;;;;;4982603;28;19992;-64
2023/05/12 01:47:30;;;;;;;;;;;13.10;87.40;;;;;;4980387;28;19930;-61
2023/05/12 01:50:08;;;;;;;;;;;13.10;87.60;;;;;;4965230;28;20017;-61
2023/05/12 01:52:35;;;;;;;;;;;13.10;87.30;;;;;;4964305;28;19949;-65
2023/05/12 01:55:03;;;;;;;;;;;13.10;87.20;;;;;;4962810;28;19950;-65
2023/05/12 01:57:35;;;;;;;;;;;13.10;87.30;;;;;;4979026;28;19938;-61
2023/05/12 02:00:04;;;;;;;;;;;13.00;87.40;;;;;;4979312;28;19926;-64
2023/05/12 02:02:40;;;;;;;;;;;13.00;87.60;;;;;;4982958;28;19929;-64
2023/05/12 02:05:08;;;;;;;;;;;13.10;87.40;;;;;;4966821;28;19926;-61
2023/05/12 02:07:35;;;;;;;;;;;13.00;87.50;;;;;;4984692;28;19941;-67
2023/05/12 02:10:02;;;;;;;;;;;13.00;87.40;;;;;;4983837;28;19953;-66
2023/05/12 02:12:29;;;;;;;;;;;13.10;87.30;;;;;;4980910;28;19929;-69
2023/05/12 02:14:56;;;;;;;;;;;13.00;87.50;;;;;;4971382;28;19930;-67
2023/05/12 02:17:24;;;;;;;;;;;13.00;87.40;;;;;;4965307;28;20021;-71
2023/05/12 02:19:51;;;;;;;;;;;13.00;87.30;;;;;;4975999;28;19969;-72
2023/05/12 02:22:18;;;;;;;;;;;13.00;87.40;;;;;;4978163;28;19984;-74
2023/05/12 02:24:44;;;;;;;;;;;13.00;87.40;;;;;;4980797;28;19968;-72
2023/05/12 02:27:11;;;;;;;;;;;13.00;87.30;;;;;;4976971;28;19933;-62
2023/05/12 02:29:38;;;;;;;;;;;13.00;87.60;;;;;;4979231;28;20021;-62
2023/05/12 02:32:06;;;;;;;;;;;13.00;87.60;;;;;;4959993;28;20030;-61
2023/05/12 02:34:34;;;;;;;;;;;13.00;87.60;;;;;;4975229;28;20399;-61
2023/05/12 02:37:01;;;;;;;;;;;13.00;87.40;;;;;;4979755;28;20000;-71
2023/05/12 02:39:28;;;;;;;;;;;13.00;87.40;;;;;;4978772;28;19945;-70
2023/05/12 02:41:56;;;;;;;;;;;12.90;87.70;;;;;;4969500;28;19934;-67
2023/05/12 02:44:23;;;;;;;;;;;12.90;87.80;;;;;;4981524;28;19934;-67
2023/05/12 02:46:50;;;;;;;;;;;12.90;87.90;;;;;;4965043;28;20333;-63
2023/05/12 02:49:17;;;;;;;;;;;12.90;87.90;;;;;;4982090;28;19971;-62
2023/05/12 02:51:48;;;;;;;;;;;13.00;87.80;;;;;;4964372;28;19930;-69
2023/05/12 02:54:15;;;;;;;;;;;12.90;87.90;;;;;;4980042;28;19934;-67
2023/05/12 02:56:42;;;;;;;;;;;13.00;87.60;;;;;;4980783;28;19932;-67
2023/05/12 02:59:08;;;;;;;;;;;13.00;87.80;;;;;;4978089;28;19937;-67
2023/05/12 03:01:35;;;;;;;;;;;12.90;88.00;;;;;;4980566;28;19988;-72
2023/05/12 03:04:02;;;;;;;;;;;12.90;87.80;;;;;;4976583;28;19934;-73
2023/05/12 03:06:29;;;;;;;;;;;13.00;87.50;;;;;;4981626;28;20029;-71
2023/05/12 03:08:58;;;;;;;;;;;13.00;87.50;;;;;;4961531;28;20376;-70
2023/05/12 03:11:25;;;;;;;;;;;13.00;87.70;;;;;;4979345;28;19976;-63
2023/05/12 03:13:52;;;;;;;;;;;12.90;87.80;;;;;;4977977;28;20288;-62
2023/05/12 03:16:19;;;;;;;;;;;12.90;87.50;;;;;;4961912;28;20341;-65
2023/05/12 03:18:46;;;;;;;;;;;13.00;87.30;;;;;;4978787;28;19968;-63
2023/05/12 03:21:12;;;;;;;;;;;13.00;87.40;;;;;;4982994;28;19965;-63
2023/05/12 03:23:39;;;;;;;;;;;13.00;87.50;;;;;;4969715;28;19934;-62
2023/05/12 03:26:08;;;;;;;;;;;13.00;87.30;;;;;;4963082;28;19938;-73
2023/05/12 03:28:35;;;;;;;;;;;12.90;87.40;;;;;;4980313;28;20016;-73
2023/05/12 03:31:01;;;;;;;;;;;12.90;87.40;;;;;;4983732;28;20032;-62
2023/05/12 03:33:29;;;;;;;;;;;12.90;87.40;;;;;;4965990;28;19926;-62
2023/05/12 03:35:56;;;;;;;;;;;12.90;87.40;;;;;;4984091;28;19926;-71
2023/05/12 03:38:23;;;;;;;;;;;12.90;87.70;;;;;;4966563;28;19969;-73
2023/05/12 03:40:52;;;;;;;;;;;12.90;87.60;;;;;;4984969;28;20370;-73
2023/05/12 03:43:20;;;;;;;;;;;12.90;87.80;;;;;;4983093;28;19930;-71
2023/05/12 03:45:48;;;;;;;;;;;12.90;87.60;;;;;;4967418;28;19997;-62
2023/05/12 03:48:15;;;;;;;;;;;12.90;87.60;;;;;;4967882;28;19965;-62
2023/05/12 03:50:42;;;;;;;;;;;12.90;87.70;;;;;;4984431;28;19953;-62
2023/05/12 03:53:08;;;;;;;;;;;12.90;87.60;;;;;;4967859;28;19925;-62
2023/05/12 03:55:36;;;;;;;;;;;12.90;87.50;;;;;;4984149;28;19926;-67
2023/05/12 03:58:03;;;;;;;;;;;12.90;87.60;;;;;;4984013;28;19932;-67
2023/05/12 04:00:32;;;;;;;;;;;12.90;87.60;;;;;;4983457;28;20389;-71
2023/05/12 04:02:59;;;;;;;;;;;12.90;87.30;;;;;;4965319;28;20017;-72
2023/05/12 04:05:25;;;;;;;;;;;12.90;87.20;;;;;;4979074;28;19940;-71
2023/05/12 04:07:52;;;;;;;;;;;12.90;87.20;;;;;;4980436;28;19961;-71
2023/05/12 04:10:19;;;;;;;;;;;12.90;87.10;;;;;;4983415;28;19941;-71
2023/05/12 04:12:46;;;;;;;;;;;12.90;87.10;;;;;;4966547;28;19934;-60
2023/05/12 04:15:13;;;;;;;;;;;12.90;87.20;;;;;;4981748;28;19964;-60
2023/05/12 04:17:42;;;;;;;;;;;12.80;87.20;;;;;;4966029;28;19926;-60
2023/05/12 04:20:09;;;;;;;;;;;12.90;87.30;;;;;;4982735;28;19926;-60
2023/05/12 04:22:36;;;;;;;;;;;12.90;87.30;;;;;;4985686;28;19972;-61
2023/05/12 04:25:03;;;;;;;;;;;12.90;87.40;;;;;;4984201;28;19968;-60
2023/05/12 04:27:29;;;;;;;;;;;12.90;87.30;;;;;;4983007;28;19933;-67
2023/05/12 04:29:56;;;;;;;;;;;12.90;87.30;;;;;;4967659;28;20022;-67
2023/05/12 04:32:24;;;;;;;;;;;12.90;87.20;;;;;;4984980;28;20428;-72
2023/05/12 04:34:55;;;;;;;;;;;12.90;87.30;;;;;;4966290;28;20017;-72
2023/05/12 04:37:22;;;;;;;;;;;12.90;87.20;;;;;;4983742;28;19926;-71
2023/05/12 04:39:49;;;;;;;;;;;12.90;87.20;;;;;;4981964;28;20648;-72
2023/05/12 04:42:16;;;;;;;;;;;12.90;87.00;;;;;;4983924;28;19975;-72
2023/05/12 04:44:44;;;;;;;;;;;12.90;87.30;;;;;;4977414;28;19933;-72
2023/05/12 04:47:11;;;;;;;;;;;13.00;87.20;;;;;;4981092;28;19933;-67
2023/05/12 04:49:38;;;;;;;;;;;13.00;87.20;;;;;;4983037;28;19972;-67
2023/05/12 04:52:07;;;;;;;;;;;13.00;87.10;;;;;;4976838;28;19930;-68
2023/05/12 04:54:34;;;;;;;;;;;13.00;87.20;;;;;;4967264;28;19979;-68
2023/05/12 04:57:01;;;;;;;;;;;13.00;86.90;;;;;;4967963;28;19930;-68
2023/05/12 04:59:28;;;;;;;;;;;13.00;86.90;;;;;;4985031;28;19926;-68
2023/05/12 05:01:55;;;;;;;;;;;13.00;86.80;;;;;;4975430;28;19938;-72
2023/05/12 05:04:28;;;;;;;;;;;13.10;87.30;;;;;;4959361;28;19957;-73
2023/05/12 05:06:55;;;;;;;;;;;13.10;87.40;;;;;;4982156;28;19959;-71
2023/05/12 05:09:24;;;;;;;;;;;13.10;87.20;;;;;;4962619;28;19957;-71
2023/05/12 05:11:51;;;;;;;;;;;13.10;87.30;;;;;;4965938;28;19936;-71
2023/05/12 05:14:18;;;;;;;;;;;13.10;87.20;;;;;;4983401;28;20333;-73
2023/05/12 05:16:45;;;;;;;;;;;13.10;87.10;;;;;;4981348;28;19941;-71
2023/05/12 05:19:13;;;;;;;;;;;13.10;87.10;;;;;;4964727;28;19930;-71
2023/05/12 05:21:40;;;;;;;;;;;13.10;87.20;;;;;;4980063;28;20468;-71
2023/05/12 05:24:07;;;;;;;;;;;13.20;87.30;;;;;;4964043;28;19926;-71
2023/05/12 05:26:36;;;;;;;;;;;13.20;87.20;;;;;;4983671;28;19949;-71
2023/05/12 05:29:05;;;;;;;;;;;13.20;87.30;;;;;;4966149;28;19930;-71
2023/05/12 05:31:32;;;;;;;;;;;13.20;87.30;;;;;;4981713;28;19990;-71
2023/05/12 05:33:59;;;;;;;;;;;13.30;87.40;;;;;;4984559;28;19934;-70
2023/05/12 05:36:26;;;;;;;;;;;13.30;87.30;;;;;;4965346;28;19950;-68
2023/05/12 05:38:53;;;;;;;;;;;13.30;87.10;;;;;;4965657;28;19930;-67
2023/05/12 05:41:21;;;;;;;;;;;13.30;87.00;;;;;;4982831;28;19937;-64
2023/05/12 05:43:50;;;;;;;;;;;13.30;87.10;;;;;;4965001;28;19932;-62
2023/05/12 05:46:16;;;;;;;;;;;13.30;87.10;;;;;;4980591;28;20385;-62
2023/05/12 05:48:43;;;;;;;;;;;13.30;86.60;;;;;;4965422;28;19957;-62
2023/05/12 05:51:11;;;;;;;;;;;13.40;86.90;;;;;;4962564;28;20533;-61
2023/05/12 05:53:39;;;;;;;;;;;13.40;87.00;;;;;;4963069;28;20300;-61
2023/05/12 05:56:06;;;;;;;;;;;13.30;87.10;;;;;;4981469;28;19937;-61
2023/05/12 05:58:33;;;;;;;;;;;13.30;87.00;;;;;;4966071;28;19926;-61
2023/05/12 06:01:03;;;;;;;;;;;13.30;87.20;;;;;;4965444;28;20025;-62
2023/05/12 06:03:31;;;;;;;;;;;13.30;87.30;;;;;;4981294;28;19930;-62
2023/05/12 06:05:59;;;;;;;;;;;13.40;86.80;;;;;;4982497;28;19957;-62
2023/05/12 06:08:26;;;;;;;;;;;13.40;86.80;;;;;;4964838;28;19934;-63
2023/05/12 06:10:54;;;;;;;;;;;13.40;86.60;;;;;;4966173;28;20012;-64
2023/05/12 06:13:21;;;;;;;;;;;13.40;86.50;;;;;;4978247;28;20336;-64
2023/05/12 06:15:47;;;;;;;;;;;13.40;86.40;;;;;;4982301;28;20404;-63
2023/05/12 06:18:16;;;;;;;;;;;13.40;86.10;;;;;;4978000;28;19930;-62
2023/05/12 06:20:43;;;;;;;;;;;13.30;86.00;;;;;;4983807;28;20306;-64
2023/05/12 06:23:09;;;;;;;;;;;13.30;86.20;;;;;;4979370;28;19949;-63
2023/05/12 06:25:36;;;;;;;;;;;13.30;86.50;;;;;;4981687;28;19957;-63
2023/05/12 06:28:03;;;;;;;;;;;13.30;86.70;;;;;;4981863;28;19938;-63
2023/05/12 06:30:30;;;;;;;;;;;13.30;86.80;;;;;;4978974;28;20021;-63
2023/05/12 06:32:58;;;;;;;;;;;13.30;86.90;;;;;;4982285;28;20033;-63
2023/05/12 06:35:26;;;;;;;;;;;13.40;87.00;;;;;;4981388;28;19930;-63
2023/05/12 06:37:53;;;;;;;;;;;13.40;87.10;;;;;;4981381;28;19930;-63
2023/05/12 06:40:20;;;;;;;;;;;13.40;87.00;;;;;;4981550;28;20459;-63
2023/05/12 06:42:47;;;;;;;;;;;13.40;87.00;;;;;;4983161;28;19984;-61
2023/05/12 06:45:19;;;;;;;;;;;13.50;86.90;;;;;;4980287;28;19926;-62
2023/05/12 06:47:46;;;;;;;;;;;13.60;86.90;;;;;;4981155;28;19934;-63
2023/05/12 06:50:14;;;;;;;;;;;13.60;86.60;;;;;;4965698;28;19992;-63
2023/05/12 06:52:42;;;;;;;;;;;13.60;86.80;;;;;;4982881;28;19952;-62
2023/05/12 06:55:09;;;;;;;;;;;13.60;86.90;;;;;;4978091;28;19933;-63
2023/05/12 06:57:36;;;;;;;;;;;13.60;87.00;;;;;;4981456;28;19957;-73
2023/05/12 07:00:03;;;;;;;;;;;13.60;87.00;;;;;;4977555;28;19938;-73
2023/05/12 07:02:30;;;;;;;;;;;13.60;86.90;;;;;;4978705;28;19945;-73
2023/05/12 07:04:57;;;;;;;;;;;13.60;86.80;;;;;;4980838;28;19926;-73
2023/05/12 07:07:24;;;;;;;;;;;13.60;86.70;;;;;;4982413;28;19949;-73
2023/05/12 07:09:52;;;;;;;;;;;13.60;86.80;;;;;;4981810;28;19938;-73
2023/05/12 07:12:19;;;;;;;;;;;13.60;86.40;;;;;;4984556;28;19926;-62
2023/05/12 07:14:46;;;;;;;;;;;13.60;86.50;;;;;;4983066;28;20000;-62
2023/05/12 07:17:13;;;;;;;;;;;13.70;86.50;;;;;;4985700;28;19926;-62
2023/05/12 07:19:40;;;;;;;;;;;13.70;86.50;;;;;;4983554;28;20623;-64
2023/05/12 07:22:06;;;;;;;;;;;13.80;86.40;;;;;;4963605;28;19934;-61
2023/05/12 07:24:34;;;;;;;;;;;13.90;86.20;;;;;;4984890;28;20010;-61
2023/05/12 07:27:02;;;;;;;;;;;14.00;86.20;;;;;;4985230;28;20348;-66
2023/05/12 07:29:29;;;;;;;;;;;14.10;86.10;;;;;;4982060;28;20292;-67
2023/05/12 07:31:56;;;;;;;;;;;14.20;86.00;;;;;;4985708;28;19942;-72
2023/05/12 07:34:23;;;;;;;;;;;14.30;85.80;;;;;;4986024;28;20278;-73
2023/05/12 07:36:49;;;;;;;;;;;14.40;85.60;;;;;;4986447;28;19926;-72
2023/05/12 07:39:22;;;;;;;;;;;14.50;85.50;;;;;;4983999;28;19956;-72
2023/05/12 07:41:49;;;;;;;;;;;14.60;85.10;;;;;;4984413;28;19934;-72
2023/05/12 07:44:17;;;;;;;;;;;14.70;84.70;;;;;;4984609;28;20441;-71
2023/05/12 07:46:44;;;;;;;;;;;14.90;84.80;;;;;;4983953;28;19992;-71
2023/05/12 07:49:11;;;;;;;;;;;15.10;84.50;;;;;;4982718;28;19936;-72
2023/05/12 07:51:38;;;;;;;;;;;15.30;84.30;;;;;;4984161;28;20016;-71
2023/05/12 07:54:05;;;;;;;;;;;15.50;83.50;;;;;;4984043;28;19927;-72
2023/05/12 07:56:32;;;;;;;;;;;15.60;83.60;;;;;;4983066;28;20029;-71
2023/05/12 07:58:59;;;;;;;;;;;15.80;83.10;;;;;;4982844;28;19929;-73
2023/05/12 08:01:27;;;;;;;;;;;16.00;82.60;;;;;;4984989;28;19938;-66
2023/05/12 08:03:55;;;;;;;;;;;16.10;82.30;;;;;;4985160;28;19933;-68
2023/05/12 08:06:21;;;;;;;;;;;16.30;81.60;;;;;;4985554;28;19930;-61
2023/05/12 08:08:48;;;;;;;;;;;16.30;80.70;;;;;;4984438;28;19980;-61
2023/05/12 08:11:15;;;;;;;;;;;16.30;81.10;;;;;;4982768;28;20020;-61
2023/05/12 08:13:42;;;;;;;;;;;16.30;80.90;;;;;;4983155;28;19930;-61
2023/05/12 08:16:09;;;;;;;;;;;16.30;80.80;;;;;;4984652;28;19965;-67
2023/05/12 08:18:37;;;;;;;;;;;16.30;80.70;;;;;;4984550;28;19981;-67
2023/05/12 08:21:04;;;;;;;;;;;16.40;81.00;;;;;;4983075;28;19930;-67
2023/05/12 08:23:31;;;;;;;;;;;16.50;80.50;;;;;;4980681;28;19929;-66
2023/05/12 08:25:58;;;;;;;;;;;16.60;80.20;;;;;;4983997;28;19930;-64
2023/05/12 08:28:25;;;;;;;;;;;16.60;79.90;;;;;;4982090;28;20032;-63
2023/05/12 08:30:52;;;;;;;;;;;16.70;79.60;;;;;;4982076;28;19988;-72
2023/05/12 08:33:19;;;;;;;;;;;16.80;79.60;;;;;;4984778;28;20588;-72
2023/05/12 08:35:47;;;;;;;;;;;16.90;79.20;;;;;;4983591;28;20607;-62
2023/05/12 08:38:14;;;;;;;;;;;17.00;79.10;;;;;;4980917;28;21822;-63
2023/05/12 08:40:47;;;;;;;;;;;17.00;77.80;;;;;;4982224;28;19930;-66
2023/05/12 08:43:18;;;;;;;;;;;17.10;78.10;;;;;;4983209;28;20021;-66
2023/05/12 08:45:45;;;;;;;;;;;17.10;76.70;;;;;;4984097;28;19957;-62
2023/05/12 08:48:14;;;;;;;;;;;17.10;76.70;;;;;;4978208;28;20024;-62
2023/05/12 08:50:41;;;;;;;;;;;17.20;76.50;;;;;;4981510;28;19976;-64
2023/05/12 08:53:10;;;;;;;;;;;17.10;75.90;;;;;;4985469;28;19929;-66
2023/05/12 08:55:39;;;;;;;;;;;17.00;75.20;;;;;;4980186;28;20397;-63
2023/05/12 08:58:07;;;;;;;;;;;17.00;74.70;;;;;;4983870;28;19983;-62
2023/05/12 09:00:34;;;;;;;;;;;17.10;74.10;;;;;;4983631;28;19926;-73
2023/05/12 09:03:02;;;;;;;;;;;17.10;74.50;;;;;;4983348;28;19938;-72
2023/05/12 09:05:29;;;;;;;;;;;17.10;74.20;;;;;;4980749;28;19926;-73
2023/05/12 09:07:56;;;;;;;;;;;17.10;72.80;;;;;;4981900;28;19973;-72
2023/05/12 09:10:26;;;;;;;;;;;17.20;73.10;;;;;;4977784;28;19930;-61
2023/05/12 09:12:54;;;;;;;;;;;17.20;73.40;;;;;;4981171;28;19930;-61
2023/05/12 09:15:25;;;;;;;;;;;17.20;73.40;;;;;;4982724;28;19930;-64
2023/05/12 09:17:52;;;;;;;;;;;17.20;73.90;;;;;;4981649;28;19933;-67
2023/05/12 09:20:19;;;;;;;;;;;17.30;73.80;;;;;;4984947;28;19926;-62
2023/05/12 09:22:45;;;;;;;;;;;17.30;73.10;;;;;;4980533;28;20003;-61
2023/05/12 09:25:17;;;;;;;;;;;17.40;72.40;;;;;;4981196;28;19934;-64
2023/05/12 09:27:46;;;;;;;;;;;17.60;72.60;;;;;;4982825;28;19965;-63
2023/05/12 09:30:13;;;;;;;;;;;17.70;72.30;;;;;;4982653;28;19926;-64
2023/05/12 09:32:40;;;;;;;;;;;17.80;71.30;;;;;;4963622;28;19973;-66
2023/05/12 09:35:10;;;;;;;;;;;17.90;70.10;;;;;;4981090;28;19977;-66
2023/05/12 09:37:37;;;;;;;;;;;18.00;70.10;;;;;;4980471;28;19941;-65
2023/05/12 09:40:05;;;;;;;;;;;18.10;69.50;;;;;;4981022;28;20008;-66
2023/05/12 09:42:32;;;;;;;;;;;18.10;70.10;;;;;;4982397;28;19933;-66
2023/05/12 09:45:02;;;;;;;;;;;18.10;69.90;;;;;;4979606;28;19940;-64
2023/05/12 09:47:34;;;;;;;;;;;18.00;70.60;;;;;;4980591;28;20369;-65
2023/05/12 09:50:02;;;;;;;;;;;18.00;70.50;;;;;;4982451;28;20299;-65
2023/05/12 09:52:31;;;;;;;;;;;17.90;69.90;;;;;;4982812;28;19936;-66
2023/05/12 09:55:05;;;;;;;;;;;18.00;70.20;;;;;;4981013;28;20324;-66
2023/05/12 09:57:35;;;;;;;;;;;18.10;70.50;;;;;;4981799;28;19937;-65
2023/05/12 10:00:06;;;;;;;;;;;18.10;69.50;;;;;;4982129;28;19930;-67
2023/05/12 10:02:34;;;;;;;;;;;18.20;69.80;;;;;;4984393;28;19937;-65
2023/05/12 10:05:03;;;;;;;;;;;18.30;68.80;;;;;;4982025;28;19984;-66
2023/05/12 10:07:30;;;;;;;;;;;18.40;68.30;;;;;;4983466;28;20376;-65
2023/05/12 10:09:59;;;;;;;;;;;18.40;67.80;;;;;;4981984;28;19937;-66
2023/05/12 10:12:26;;;;;;;;;;;18.50;67.60;;;;;;4983112;28;19940;-66
2023/05/12 10:14:53;;;;;;;;;;;18.40;66.90;;;;;;4979513;28;19930;-67
2023/05/12 10:17:23;;;;;;;;;;;18.30;67.70;;;;;;4982797;28;19930;-61
2023/05/12 10:19:49;;;;;;;;;;;18.20;67.60;;;;;;4984658;28;20385;-63
2023/05/12 10:22:17;;;;;;;;;;;18.10;67.20;;;;;;4981032;28;19933;-61
2023/05/12 10:24:44;;;;;;;;;;;18.20;67.30;;;;;;4981301;28;19930;-61
2023/05/12 10:27:12;;;;;;;;;;;18.10;68.30;;;;;;4979897;28;19926;-63
2023/05/12 10:29:39;;;;;;;;;;;18.10;67.50;;;;;;4982481;28;20074;-62
2023/05/12 10:32:06;;;;;;;;;;;18.10;67.60;;;;;;4981283;28;19933;-63
2023/05/12 10:34:35;;;;;;;;;;;18.10;67.20;;;;;;4982987;28;19996;-64
2023/05/12 10:37:07;;;;;;;;;;;18.10;67.20;;;;;;4979764;28;19926;-67
2023/05/12 10:39:34;;;;;;;;;;;18.10;66.90;;;;;;4962762;28;20415;-65
2023/05/12 10:42:01;;;;;;;;;;;18.20;66.90;;;;;;4981787;28;19929;-74
2023/05/12 10:44:28;;;;;;;;;;;18.30;65.50;;;;;;4981270;28;20024;-74
2023/05/12 10:46:58;;;;;;;;;;;18.40;65.40;;;;;;4984556;28;19926;-62
2023/05/12 10:49:31;;;;;;;;;;;18.40;65.30;;;;;;4988271;28;19930;-62
2023/05/12 10:52:00;;;;;;;;;;;18.50;64.80;;;;;;4985686;28;19933;-62
2023/05/12 10:54:27;;;;;;;;;;;18.60;65.10;;;;;;4983345;28;19926;-63
2023/05/12 10:56:57;;;;;;;;;;;18.60;64.50;;;;;;4983568;28;19926;-61
2023/05/12 10:59:25;;;;;;;;;;;18.60;64.70;;;;;;4984266;28;19934;-61
2023/05/12 11:01:57;;;;;;;;;;;18.60;64.30;;;;;;4984491;28;20017;-66
2023/05/12 11:04:24;;;;;;;;;;;18.60;64.90;;;;;;4985567;28;19936;-65
2023/05/12 11:06:58;;;;;;;;;;;18.60;65.20;;;;;;4983260;28;19925;-63
2023/05/12 11:09:26;;;;;;;;;;;18.60;65.00;;;;;;4985946;28;20487;-61
2023/05/12 11:11:53;;;;;;;;;;;18.60;65.30;;;;;;4984240;28;19937;-65
2023/05/12 11:14:20;;;;;;;;;;;18.60;65.10;;;;;;4984599;28;20305;-67
2023/05/12 11:16:47;;;;;;;;;;;18.50;65.10;;;;;;4983651;28;19925;-61
2023/05/12 11:19:14;;;;;;;;;;;18.30;64.50;;;;;;4983804;28;20047;-62
2023/05/12 11:21:41;;;;;;;;;;;18.30;64.70;;;;;;4986233;28;19965;-66
2023/05/12 11:24:09;;;;;;;;;;;18.30;65.00;;;;;;4983460;28;19926;-67
2023/05/12 11:26:39;;;;;;;;;;;18.40;65.30;;;;;;4983715;28;20021;-67
2023/05/12 11:29:06;;;;;;;;;;;18.50;65.30;;;;;;4983404;28;20340;-65
2023/05/12 11:31:33;;;;;;;;;;;18.50;65.50;;;;;;4963753;28;19981;-72
2023/05/12 11:34:03;;;;;;;;;;;18.60;65.60;;;;;;4983248;28;20000;-74
2023/05/12 11:36:35;;;;;;;;;;;18.70;65.80;;;;;;4983528;28;20381;-65
2023/05/12 11:39:02;;;;;;;;;;;18.70;66.10;;;;;;4980820;28;19953;-65
2023/05/12 11:41:29;;;;;;;;;;;18.80;66.50;;;;;;4984140;28;19996;-82
2023/05/12 11:43:57;;;;;;;;;;;18.80;66.40;;;;;;4987957;28;19992;-84
2023/05/12 11:46:25;;;;;;;;;;;18.90;66.40;;;;;;4982151;28;19965;-63
2023/05/12 11:48:55;;;;;;;;;;;19.00;65.90;;;;;;4983681;28;20286;-63
2023/05/12 11:51:22;;;;;;;;;;;19.00;65.80;;;;;;4983872;28;20020;-67
2023/05/12 11:53:49;;;;;;;;;;;19.00;65.30;;;;;;4982363;28;19930;-67
2023/05/12 11:56:20;;;;;;;;;;;19.00;65.40;;;;;;4984077;28;19926;-65
2023/05/12 11:58:54;;;;;;;;;;;19.00;65.30;;;;;;4983734;28;19929;-64
2023/05/12 12:01:22;;;;;;;;;;;19.10;65.10;;;;;;4985138;28;19981;-64
2023/05/12 12:03:50;;;;;;;;;;;19.10;65.50;;;;;;4983806;28;20313;-66
2023/05/12 12:06:17;;;;;;;;;;;19.10;65.50;;;;;;4981506;28;19929;-74
2023/05/12 12:08:51;;;;;;;;;;;19.10;65.70;;;;;;4984326;28;20401;-73
2023/05/12 12:11:18;;;;;;;;;;;19.20;65.20;;;;;;4982852;28;20020;-67
2023/05/12 12:13:48;;;;;;;;;;;19.20;65.30;;;;;;4979456;28;20004;-66
2023/05/12 12:16:16;;;;;;;;;;;19.20;65.80;;;;;;4979314;28;20044;-67
2023/05/12 12:18:44;;;;;;;;;;;19.30;65.50;;;;;;4977109;28;19938;-67
2023/05/12 12:21:11;;;;;;;;;;;19.40;64.60;;;;;;4981577;28;19934;-66
2023/05/12 12:23:37;;;;;;;;;;;19.40;64.30;;;;;;4984674;28;20385;-68
2023/05/12 12:26:04;;;;;;;;;;;19.50;64.00;;;;;;4982446;28;19926;-67
2023/05/12 12:28:31;;;;;;;;;;;19.50;63.30;;;;;;4982529;28;19926;-67
2023/05/12 12:30:58;;;;;;;;;;;19.50;63.50;;;;;;4981610;28;20033;-66
2023/05/12 12:33:28;;;;;;;;;;;19.60;63.50;;;;;;4985294;28;19930;-68
2023/05/12 12:35:56;;;;;;;;;;;19.60;64.50;;;;;;4981402;28;19930;-67
2023/05/12 12:38:22;;;;;;;;;;;19.60;63.70;;;;;;4983713;28;19926;-67
2023/05/12 12:40:50;;;;;;;;;;;19.50;63.40;;;;;;4982667;28;19948;-67
2023/05/12 12:43:17;;;;;;;;;;;19.40;62.30;;;;;;4983225;28;19926;-66
2023/05/12 12:45:44;;;;;;;;;;;19.20;62.80;;;;;;4982346;28;20444;-66
2023/05/12 12:48:13;;;;;;;;;;;19.20;62.40;;;;;;4982973;28;20359;-66
2023/05/12 12:50:40;;;;;;;;;;;19.20;62.20;;;;;;4980364;28;19934;-66
2023/05/12 12:53:08;;;;;;;;;;;19.30;62.50;;;;;;4981547;28;20005;-67
2023/05/12 12:55:35;;;;;;;;;;;19.30;63.20;;;;;;4982985;28;19930;-66
2023/05/12 12:58:02;;;;;;;;;;;19.60;63.30;;;;;;4984438;28;19936;-66
2023/05/12 13:00:28;;;;;;;;;;;19.90;61.70;;;;;;4984010;28;20049;-67
2023/05/12 13:02:55;;;;;;;;;;;19.70;62.30;;;;;;4982477;28;19936;-67
2023/05/12 13:05:22;;;;;;;;;;;19.70;61.20;;;;;;4982789;28;19929;-63
2023/05/12 13:07:50;;;;;;;;;;;19.70;61.40;;;;;;4982325;28;20296;-63
2023/05/12 13:10:18;;;;;;;;;;;19.70;60.50;;;;;;4982224;28;19929;-63
2023/05/12 13:12:45;;;;;;;;;;;19.80;61.10;;;;;;4983074;28;19932;-64
2023/05/12 13:15:11;;;;;;;;;;;19.90;60.70;;;;;;4982006;28;19954;-65
2023/05/12 13:17:38;;;;;;;;;;;19.90;61.10;;;;;;4978852;28;19930;-63
2023/05/12 13:20:05;;;;;;;;;;;19.90;60.60;;;;;;4977576;28;20021;-64
2023/05/12 13:22:32;;;;;;;;;;;19.90;61.60;;;;;;4980297;28;19948;-64
2023/05/12 13:24:59;;;;;;;;;;;19.90;60.00;;;;;;4982472;28;20368;-64
2023/05/12 13:27:27;;;;;;;;;;;19.90;59.50;;;;;;4976772;28;20300;-64
2023/05/12 13:29:53;;;;;;;;;;;19.90;60.30;;;;;;4979769;28;19945;-63
2023/05/12 13:32:20;;;;;;;;;;;20.00;59.70;;;;;;4981679;28;19934;-74
2023/05/12 13:34:47;;;;;;;;;;;20.00;59.50;;;;;;4982113;28;19930;-74
2023/05/12 13:37:14;;;;;;;;;;;20.00;60.00;;;;;;4983214;28;19929;-65
2023/05/12 13:39:40;;;;;;;;;;;20.00;60.50;;;;;;4982851;28;19941;-63
2023/05/12 13:42:07;;;;;;;;;;;20.00;60.00;;;;;;4983101;28;19935;-79
2023/05/12 13:44:35;;;;;;;;;;;20.10;59.50;;;;;;4979415;28;20400;-78
2023/05/12 13:47:02;;;;;;;;;;;20.10;58.90;;;;;;4982516;28;19934;-66
2023/05/12 13:49:29;;;;;;;;;;;20.10;59.00;;;;;;4984610;28;19929;-68
2023/05/12 13:51:55;;;;;;;;;;;20.10;59.00;;;;;;4982096;28;19975;-67
2023/05/12 13:54:23;;;;;;;;;;;20.10;58.80;;;;;;4982110;28;19969;-68
2023/05/12 13:56:50;;;;;;;;;;;20.10;58.00;;;;;;4981378;28;20596;-65
2023/05/12 13:59:17;;;;;;;;;;;20.00;57.70;;;;;;4981146;28;19926;-68
2023/05/12 14:01:45;;;;;;;;;;;20.00;57.80;;;;;;4982319;28;20045;-63
2023/05/12 14:04:13;;;;;;;;;;;20.00;58.50;;;;;;4979335;28;20400;-64
2023/05/12 14:06:39;;;;;;;;;;;19.90;58.20;;;;;;4984013;28;20452;-75
2023/05/12 14:09:06;;;;;;;;;;;19.90;58.10;;;;;;4979550;28;19952;-75
2023/05/12 14:11:33;;;;;;;;;;;19.80;58.00;;;;;;4981875;28;19945;-66
2023/05/12 14:14:01;;;;;;;;;;;19.70;57.90;;;;;;4982437;28;19926;-67
2023/05/12 14:16:28;;;;;;;;;;;19.60;56.80;;;;;;4981096;28;19956;-70
2023/05/12 14:18:56;;;;;;;;;;;19.60;57.60;;;;;;4980635;28;19940;-69